Terminal Aerodrome Forecast
Issued by NWS

Home | Current Version | Previous Version | Text Only | Print | Product List | Glossary On
Versions: 1 2 3 4 5 6 7 8 9 10 11 12 13
000
FTUS45 KTFX 211100
TAFCTB
TAF
KCTB 211129Z 2112/2212 24022G35KT P6SM BKN150
     FM211700 26026G40KT P6SM BKN120
     FM220200 29018G28KT P6SM BKN100=

USA.gov is the U.S. government's official web portal to all federal, state and local government web resources and services.